createdAt,value
2023-11-27T00:00:37.675Z,3.53
2023-11-27T00:03:07.998Z,3.50
2023-11-27T00:05:35.103Z,3.38
2023-11-27T00:08:01.877Z,3.03
2023-11-27T00:10:28.735Z,3.26
2023-11-27T00:13:00.909Z,3.20
2023-11-27T00:15:28.899Z,2.81
2023-11-27T00:17:56.076Z,3.08
2023-11-27T00:20:23.495Z,3.18
2023-11-27T00:22:50.303Z,3.13
2023-11-27T00:25:17.364Z,3.03
2023-11-27T00:27:44.563Z,2.74
2023-11-27T00:30:12.004Z,2.92
2023-11-27T00:32:38.848Z,2.83
2023-11-27T00:35:06.381Z,2.88
2023-11-27T00:37:33.264Z,2.87
2023-11-27T00:40:00.310Z,3.01
2023-11-27T00:42:27.348Z,2.97
2023-11-27T00:44:54.205Z,3.01
2023-11-27T00:47:20.941Z,3.01
2023-11-27T00:49:47.680Z,2.89
2023-11-27T00:52:14.538Z,2.90
2023-11-27T00:54:41.318Z,2.82
2023-11-27T00:57:08.195Z,2.97
2023-11-27T00:59:40.324Z,2.89
2023-11-27T01:02:08.095Z,2.81
2023-11-27T01:04:35.005Z,2.82
2023-11-27T01:07:02.002Z,2.72
2023-11-27T01:09:29.720Z,2.76
2023-11-27T01:11:56.499Z,2.66
2023-11-27T01:14:23.384Z,2.80
2023-11-27T01:16:50.220Z,2.84
2023-11-27T01:19:19.011Z,2.76
2023-11-27T01:21:45.923Z,2.75
2023-11-27T01:24:13.474Z,2.86
2023-11-27T01:26:40.287Z,2.97
2023-11-27T01:29:07.276Z,2.89
2023-11-27T01:31:34.020Z,2.99
2023-11-27T01:34:00.896Z,3.06
2023-11-27T01:36:28.627Z,2.99
2023-11-27T01:38:55.393Z,2.97
2023-11-27T01:41:22.621Z,2.92
2023-11-27T01:43:49.394Z,3.25
2023-11-27T01:46:45.363Z,3.29
2023-11-27T01:49:13.716Z,3.26
2023-11-27T01:51:41.559Z,3.28
2023-11-27T01:54:08.529Z,3.23
2023-11-27T01:56:36.336Z,3.19
2023-11-27T01:59:03.170Z,3.30
2023-11-27T02:01:31.855Z,3.07
2023-11-27T02:03:58.703Z,3.09
2023-11-27T02:06:25.578Z,3.08
2023-11-27T02:08:52.367Z,3.02
2023-11-27T02:11:20.703Z,3.07
2023-11-27T02:13:48.161Z,2.85
2023-11-27T02:16:17.485Z,2.74
2023-11-27T02:18:45.202Z,2.82
2023-11-27T02:21:13.380Z,2.82
2023-11-27T02:23:40.231Z,2.80
2023-11-27T02:26:07.939Z,2.84
2023-11-27T02:28:34.850Z,2.81
2023-11-27T02:31:01.758Z,2.72
2023-11-27T02:33:28.808Z,2.83
2023-11-27T02:35:55.634Z,2.73
2023-11-27T02:38:22.494Z,2.66
2023-11-27T02:40:49.359Z,2.55
2023-11-27T02:43:16.161Z,2.64
2023-11-27T02:45:43.384Z,2.63
2023-11-27T02:48:10.251Z,2.55
2023-11-27T02:50:36.932Z,2.46
2023-11-27T02:53:03.701Z,2.42
2023-11-27T02:55:30.594Z,2.31
2023-11-27T02:57:57.670Z,2.45
2023-11-27T03:00:24.654Z,2.40
2023-11-27T03:02:51.680Z,2.46
2023-11-27T03:05:18.642Z,2.40
2023-11-27T03:07:46.245Z,2.40
2023-11-27T03:10:14.787Z,2.12
2023-11-27T03:12:42.825Z,2.41
2023-11-27T03:15:09.997Z,2.48
2023-11-27T03:17:42.050Z,2.33
2023-11-27T03:20:12.230Z,2.00
2023-11-27T03:22:42.421Z,2.42
2023-11-27T03:25:09.753Z,2.58
2023-11-27T03:27:37.469Z,2.46
2023-11-27T03:30:06.042Z,2.43
2023-11-27T03:32:33.586Z,2.25
2023-11-27T03:35:00.555Z,2.37
2023-11-27T03:37:27.492Z,2.33
2023-11-27T03:39:54.367Z,2.31
2023-11-27T03:42:21.220Z,2.24
2023-11-27T03:44:48.317Z,2.23
2023-11-27T03:47:15.128Z,2.19
2023-11-27T03:49:41.944Z,2.03
2023-11-27T03:52:09.012Z,2.08
2023-11-27T03:54:36.049Z,2.24
2023-11-27T03:57:02.900Z,2.27
2023-11-27T03:59:29.831Z,1.98
2023-11-27T04:01:56.753Z,2.07
2023-11-27T04:04:23.785Z,2.12
2023-11-27T04:06:50.918Z,2.13
2023-11-27T04:09:22.285Z,1.99
2023-11-27T04:11:53.156Z,2.16
2023-11-27T04:14:19.877Z,2.01
2023-11-27T04:16:46.981Z,2.09
2023-11-27T04:19:13.841Z,1.96
2023-11-27T04:21:40.694Z,1.93
2023-11-27T04:24:08.620Z,1.97
2023-11-27T04:26:35.873Z,1.91
2023-11-27T04:29:03.087Z,1.97
2023-11-27T04:31:30.071Z,1.99
2023-11-27T04:33:57.389Z,1.99
2023-11-27T04:36:24.673Z,1.93
2023-11-27T04:38:51.878Z,1.96
2023-11-27T04:41:20.746Z,1.97
2023-11-27T04:43:47.817Z,2.01
2023-11-27T04:46:14.845Z,1.97
2023-11-27T04:48:41.956Z,1.93
2023-11-27T04:51:09.166Z,2.01
2023-11-27T04:53:35.964Z,1.93
2023-11-27T04:56:02.761Z,1.92
2023-11-27T04:58:29.966Z,1.95
2023-11-27T05:00:57.158Z,2.09
2023-11-27T05:03:24.293Z,2.14
2023-11-27T05:05:51.182Z,2.13
2023-11-27T05:08:18.023Z,2.11
2023-11-27T05:10:47.029Z,2.02
2023-11-27T05:13:14.971Z,1.97
2023-11-27T05:15:41.794Z,2.06
2023-11-27T05:18:08.897Z,2.17
2023-11-27T05:20:35.713Z,2.07
2023-11-27T05:23:03.399Z,2.15
2023-11-27T05:25:30.421Z,2.26
2023-11-27T05:27:57.384Z,2.22
2023-11-27T05:30:24.204Z,2.17
2023-11-27T05:32:51.818Z,2.16
2023-11-27T05:35:18.728Z,1.98
2023-11-27T05:37:45.530Z,2.14
2023-11-27T05:40:12.853Z,2.23
2023-11-27T05:42:42.307Z,2.13
2023-11-27T05:45:12.648Z,2.12
2023-11-27T05:47:42.559Z,2.08
2023-11-27T05:50:16.393Z,2.14
2023-11-27T05:52:43.722Z,2.17
2023-11-27T05:55:10.740Z,2.36
2023-11-27T05:57:38.341Z,2.19
2023-11-27T06:00:06.930Z,2.22
2023-11-27T06:02:33.853Z,2.13
2023-11-27T06:05:00.623Z,2.13
2023-11-27T06:07:27.526Z,2.23
2023-11-27T06:09:54.397Z,1.91
2023-11-27T06:12:24.927Z,2.22
2023-11-27T06:14:51.882Z,2.11
2023-11-27T06:17:18.957Z,2.17
2023-11-27T06:19:46.152Z,2.00
2023-11-27T06:22:13.420Z,2.17
2023-11-27T06:24:40.550Z,2.21
2023-11-27T06:27:07.265Z,2.13
2023-11-27T06:29:34.229Z,2.12
2023-11-27T06:32:01.116Z,1.97
2023-11-27T06:34:39.251Z,2.01
2023-11-27T06:37:06.645Z,2.18
2023-11-27T06:39:35.586Z,2.07
2023-11-27T06:42:03.889Z,2.09
2023-11-27T06:44:30.873Z,1.92
2023-11-27T06:46:59.841Z,2.04
2023-11-27T06:49:27.748Z,1.99
2023-11-27T06:51:54.950Z,1.85
2023-11-27T06:54:24.223Z,2.10
2023-11-27T06:56:53.215Z,2.15
2023-11-27T06:59:20.699Z,2.25
2023-11-27T07:01:48.091Z,2.22
2023-11-27T07:04:15.304Z,2.18
2023-11-27T07:06:43.064Z,2.17
2023-11-27T07:09:12.243Z,2.19
2023-11-27T07:11:39.022Z,2.08
2023-11-27T07:14:06.417Z,2.13
2023-11-27T07:16:35.537Z,2.09
2023-11-27T07:19:02.724Z,2.08
2023-11-27T07:21:30.677Z,2.01
2023-11-27T07:23:58.029Z,2.18
2023-11-27T07:26:26.260Z,2.18
2023-11-27T07:28:55.389Z,2.17
2023-11-27T07:31:23.125Z,1.94
2023-11-27T07:33:50.390Z,2.32
2023-11-27T07:36:18.174Z,2.16
2023-11-27T07:38:49.754Z,2.23
2023-11-27T07:41:19.277Z,2.31
2023-11-27T07:43:48.431Z,2.05
2023-11-27T07:46:16.152Z,2.07
2023-11-27T07:48:45.747Z,2.10
2023-11-27T07:51:13.714Z,1.93
2023-11-27T07:53:41.001Z,2.24
2023-11-27T07:56:08.409Z,2.13
2023-11-27T07:58:35.358Z,2.19
2023-11-27T08:01:02.191Z,2.16
2023-11-27T08:03:29.136Z,2.26
2023-11-27T08:05:56.060Z,2.31
2023-11-27T08:08:22.758Z,2.33
2023-11-27T08:10:49.491Z,2.33
2023-11-27T08:13:17.632Z,2.34
2023-11-27T08:15:45.558Z,2.52
2023-11-27T08:18:13.133Z,2.39
2023-11-27T08:20:40.157Z,2.39
2023-11-27T08:23:06.948Z,2.30
2023-11-27T08:25:34.395Z,2.51
2023-11-27T08:28:03.519Z,2.45
2023-11-27T08:30:34.019Z,2.48
2023-11-27T08:33:02.429Z,2.52
2023-11-27T08:35:29.459Z,2.50
2023-11-27T08:37:57.054Z,2.64
2023-11-27T08:40:24.268Z,2.47
2023-11-27T08:42:51.148Z,2.51
2023-11-27T08:45:19.443Z,2.53
2023-11-27T08:47:53.973Z,2.55
2023-11-27T08:50:25.719Z,2.20
2023-11-27T08:52:59.485Z,2.64
2023-11-27T08:55:31.921Z,2.57
2023-11-27T08:58:02.736Z,2.55
2023-11-27T09:00:30.396Z,2.53
2023-11-27T09:03:01.923Z,2.43
2023-11-27T09:05:32.897Z,2.60
2023-11-27T09:08:07.997Z,2.70
2023-11-27T09:10:36.763Z,2.74
2023-11-27T09:13:07.316Z,2.43
2023-11-27T09:15:38.181Z,2.78
2023-11-27T09:18:05.268Z,2.76
2023-11-27T09:20:32.200Z,2.88
2023-11-27T09:22:59.295Z,2.99
2023-11-27T09:25:26.129Z,3.08
2023-11-27T09:27:53.012Z,2.91
2023-11-27T09:30:22.065Z,2.93
2023-11-27T09:32:49.545Z,2.87
2023-11-27T09:35:16.900Z,2.85
2023-11-27T09:37:44.436Z,2.83
2023-11-27T09:40:14.105Z,2.87
2023-11-27T09:42:47.078Z,3.04
2023-11-27T09:45:18.420Z,3.03
2023-11-27T09:47:50.152Z,2.99
2023-11-27T09:50:20.989Z,2.63
2023-11-27T09:53:07.653Z,3.04
2023-11-27T09:55:42.338Z,3.04
2023-11-27T09:58:14.744Z,3.13
2023-11-27T10:00:43.906Z,3.16
2023-11-27T10:03:11.311Z,3.04
2023-11-27T10:05:39.009Z,2.97
2023-11-27T10:08:10.497Z,3.05
2023-11-27T10:10:39.037Z,3.04
2023-11-27T10:13:09.934Z,2.76
2023-11-27T10:15:50.124Z,3.05
2023-11-27T10:18:21.210Z,3.11
2023-11-27T10:20:51.063Z,3.15
2023-11-27T10:23:18.131Z,3.13
2023-11-27T10:25:46.474Z,3.09
2023-11-27T10:28:16.618Z,2.97
2023-11-27T10:30:46.546Z,3.06
2023-11-27T10:33:13.509Z,3.11
2023-11-27T10:35:43.479Z,3.16
2023-11-27T10:38:20.310Z,3.21
2023-11-27T10:40:47.693Z,3.30
2023-11-27T10:43:14.766Z,3.26
2023-11-27T10:45:41.844Z,3.35
2023-11-27T10:48:12.446Z,3.24
2023-11-27T10:50:43.095Z,3.21
2023-11-27T10:53:12.039Z,3.35
2023-11-27T10:55:40.278Z,3.25
2023-11-27T10:58:09.485Z,3.32
2023-11-27T11:00:48.542Z,3.32
2023-11-27T11:03:22.957Z,3.36
2023-11-27T11:05:55.193Z,3.48
2023-11-27T11:08:25.061Z,3.41
2023-11-27T11:10:54.872Z,3.43
2023-11-27T11:13:24.906Z,2.71
2023-11-27T11:16:22.072Z,3.32
2023-11-27T11:18:56.044Z,3.48
2023-11-27T11:22:08.498Z,3.44
2023-11-27T11:25:05.332Z,3.57
2023-11-27T11:27:49.791Z,3.59
2023-11-27T11:30:16.784Z,3.59
2023-11-27T11:32:44.361Z,3.54
2023-11-27T11:35:14.134Z,3.65
2023-11-27T11:37:51.343Z,3.54
2023-11-27T11:40:19.117Z,3.65
2023-11-27T11:42:46.473Z,3.53
2023-11-27T11:45:26.689Z,3.50
2023-11-27T11:48:20.142Z,3.54
2023-11-27T11:50:48.684Z,3.45
2023-11-27T11:53:38.399Z,3.36
2023-11-27T11:56:20.614Z,3.25
2023-11-27T11:58:51.433Z,3.38
2023-11-27T12:01:19.968Z,3.32
2023-11-27T12:03:48.163Z,3.28
2023-11-27T12:06:17.137Z,2.99
2023-11-27T12:08:46.835Z,3.05
2023-11-27T12:11:16.864Z,3.06
2023-11-27T12:13:45.827Z,3.15
2023-11-27T12:16:14.134Z,3.18
2023-11-27T12:18:52.762Z,2.91
2023-11-27T12:21:23.918Z,2.92
2023-11-27T12:23:55.934Z,3.11
2023-11-27T12:26:25.638Z,3.16
2023-11-27T12:28:55.430Z,3.11
2023-11-27T12:31:29.165Z,2.85
2023-11-27T12:33:56.082Z,3.00
2023-11-27T12:36:27.791Z,3.00
2023-11-27T12:38:57.608Z,3.02
2023-11-27T12:41:34.659Z,3.09
2023-11-27T12:44:09.638Z,2.98
2023-11-27T12:46:39.551Z,3.16
2023-11-27T12:49:08.302Z,3.06
2023-11-27T12:51:39.385Z,2.91
2023-11-27T12:54:05.904Z,2.99
2023-11-27T12:56:33.349Z,3.00
2023-11-27T12:59:01.874Z,2.48
2023-11-27T13:01:28.474Z,2.90
2023-11-27T13:03:57.659Z,2.89
2023-11-27T13:06:28.842Z,2.92
2023-11-27T13:08:55.633Z,2.78
2023-11-27T13:11:33.974Z,2.79
2023-11-27T13:14:08.793Z,2.69
2023-11-27T13:16:36.568Z,2.75
2023-11-27T13:19:07.737Z,2.75
2023-11-27T13:21:34.278Z,2.70
2023-11-27T13:24:00.957Z,2.59
2023-11-27T13:26:36.619Z,2.58
2023-11-27T13:29:07.908Z,2.58
2023-11-27T13:31:37.565Z,2.50
2023-11-27T13:34:31.088Z,2.39
2023-11-27T13:37:00.325Z,2.57
2023-11-27T13:39:37.774Z,2.19
2023-11-27T13:42:09.759Z,2.37
2023-11-27T13:44:45.928Z,2.36
2023-11-27T13:47:18.386Z,2.40
2023-11-27T13:49:49.632Z,2.38
2023-11-27T13:52:19.157Z,2.41
2023-11-27T13:54:46.545Z,2.21
2023-11-27T13:57:13.909Z,2.45
2023-11-27T13:59:43.624Z,2.43
2023-11-27T14:02:14.561Z,2.34
2023-11-27T14:05:17.727Z,2.31
2023-11-27T14:07:44.444Z,2.29
2023-11-27T14:10:33.008Z,2.31
2023-11-27T14:13:09.314Z,2.34
2023-11-27T14:16:03.067Z,2.28
2023-11-27T14:18:48.423Z,2.11
2023-11-27T14:21:33.519Z,2.24
2023-11-27T14:24:02.666Z,2.15
2023-11-27T14:26:50.125Z,2.14
2023-11-27T14:29:22.648Z,2.29
2023-11-27T14:34:34.262Z,2.26
2023-11-27T14:37:07.870Z,2.22
2023-11-27T14:39:34.486Z,2.15
2023-11-27T14:42:01.274Z,2.14
2023-11-27T14:44:30.078Z,2.07
2023-11-27T14:46:59.099Z,2.02
2023-11-27T14:49:26.865Z,2.07
2023-11-27T14:51:59.969Z,2.08
2023-11-27T14:54:30.130Z,2.05
2023-11-27T14:56:57.441Z,2.15
2023-11-27T14:59:26.715Z,2.16
2023-11-27T15:01:54.672Z,2.08
2023-11-27T15:04:22.000Z,2.14
2023-11-27T15:06:50.107Z,2.04
2023-11-27T15:09:22.528Z,2.04
2023-11-27T15:11:55.790Z,2.12
2023-11-27T15:14:24.914Z,2.04
2023-11-27T15:17:08.511Z,2.06
2023-11-27T15:25:11.027Z,1.99
2023-11-27T15:27:40.784Z,2.07
2023-11-27T15:30:10.153Z,2.15
2023-11-27T15:32:39.026Z,2.12
2023-11-27T15:35:11.422Z,1.97
2023-11-27T15:37:40.706Z,1.96
2023-11-27T15:40:10.102Z,1.68
2023-11-27T15:42:37.017Z,1.94
2023-11-27T15:45:11.975Z,1.85
2023-11-27T15:47:38.558Z,1.86
2023-11-27T15:50:05.934Z,1.90
2023-11-27T15:52:40.254Z,1.89
2023-11-27T15:55:10.047Z,1.86
2023-11-27T15:57:36.639Z,1.90
2023-11-27T16:00:04.655Z,1.84
2023-11-27T16:02:31.672Z,1.72
2023-11-27T16:04:58.768Z,1.82
2023-11-27T16:07:25.328Z,1.86
2023-11-27T16:09:54.164Z,2.03
2023-11-27T16:12:26.865Z,1.84
2023-11-27T16:14:53.582Z,1.83
2023-11-27T16:17:21.049Z,1.90
2023-11-27T16:19:47.658Z,1.84
2023-11-27T16:22:16.640Z,1.94
2023-11-27T16:24:43.716Z,1.84
2023-11-27T16:27:14.529Z,1.85
2023-11-27T16:29:41.028Z,1.89
2023-11-27T16:32:08.738Z,1.78
2023-11-27T16:34:37.993Z,1.77
2023-11-27T16:37:04.543Z,1.70
2023-11-27T16:39:31.041Z,1.75
2023-11-27T16:42:02.689Z,1.83
2023-11-27T16:44:30.258Z,1.82
2023-11-27T16:46:56.960Z,1.66
2023-11-27T16:49:23.995Z,1.72
2023-11-27T16:51:50.494Z,1.58
2023-11-27T16:54:17.694Z,1.56
2023-11-27T16:56:46.603Z,1.70
2023-11-27T16:59:16.190Z,1.62
2023-11-27T17:01:46.788Z,1.47
2023-11-27T17:04:13.564Z,1.69
2023-11-27T17:06:40.163Z,1.60
2023-11-27T17:09:08.769Z,1.53
2023-11-27T17:11:37.741Z,1.51
2023-11-27T17:14:05.288Z,1.44
2023-11-27T17:16:34.322Z,1.41
2023-11-27T17:19:05.616Z,1.49
2023-11-27T17:21:34.432Z,1.48
2023-11-27T17:24:00.918Z,1.47
2023-11-27T17:26:27.550Z,1.18
2023-11-27T17:28:56.623Z,1.44
2023-11-27T17:31:26.360Z,1.18
2023-11-27T17:33:55.927Z,1.48
2023-11-27T17:36:26.036Z,1.50
2023-11-27T17:38:52.519Z,1.46
2023-11-27T17:41:20.476Z,1.48
2023-11-27T17:43:48.680Z,1.48
2023-11-27T17:46:17.516Z,1.34
2023-11-27T17:48:45.204Z,1.35
2023-11-27T17:51:14.562Z,1.48
2023-11-27T17:53:43.605Z,1.29
2023-11-27T17:56:12.895Z,0.97
2023-11-27T17:58:40.098Z,1.43
2023-11-27T18:01:10.209Z,1.00
2023-11-27T18:03:39.160Z,1.32
2023-11-27T18:06:08.893Z,1.29
2023-11-27T18:08:37.379Z,1.38
2023-11-27T18:11:11.459Z,1.34
2023-11-27T18:13:40.968Z,1.38
2023-11-27T18:16:12.274Z,1.30
2023-11-27T18:18:41.513Z,0.90
2023-11-27T18:21:08.404Z,1.29
2023-11-27T18:23:34.881Z,1.26
2023-11-27T18:26:04.993Z,1.31
2023-11-27T18:28:34.336Z,1.30
2023-11-27T18:31:01.252Z,1.20
2023-11-27T18:33:27.839Z,1.27
2023-11-27T18:35:59.209Z,1.24
2023-11-27T18:38:27.297Z,1.28
2023-11-27T18:40:55.657Z,1.30
2023-11-27T18:43:23.412Z,1.23
2023-11-27T18:45:52.304Z,1.29
2023-11-27T18:48:18.858Z,1.33
2023-11-27T18:50:49.358Z,1.32
2023-11-27T18:53:15.950Z,1.26
2023-11-27T18:55:45.803Z,1.17
2023-11-27T18:58:15.290Z,0.89
2023-11-27T19:00:42.023Z,1.38
2023-11-27T19:03:08.919Z,1.25
2023-11-27T19:05:38.965Z,1.39
2023-11-27T19:08:05.954Z,1.30
2023-11-27T19:10:32.883Z,1.33
2023-11-27T19:13:02.961Z,1.44
2023-11-27T19:15:31.171Z,1.50
2023-11-27T19:17:57.659Z,1.43
2023-11-27T19:20:26.351Z,1.59
2023-11-27T19:22:55.207Z,1.51
2023-11-27T19:25:21.718Z,1.54
2023-11-27T19:27:53.430Z,1.51
2023-11-27T19:30:24.631Z,1.59
2023-11-27T19:32:51.105Z,1.64
2023-11-27T19:35:19.109Z,1.58
2023-11-27T19:37:49.368Z,1.73
2023-11-27T19:40:18.346Z,1.59
2023-11-27T19:42:44.961Z,1.58
2023-11-27T19:45:11.645Z,1.62
2023-11-27T19:47:40.787Z,1.64
2023-11-27T19:50:09.880Z,1.66
2023-11-27T19:52:38.913Z,1.67
2023-11-27T19:55:07.740Z,1.69
2023-11-27T19:57:37.151Z,1.74
2023-11-27T20:00:04.746Z,1.74
2023-11-27T20:02:36.668Z,1.69
2023-11-27T20:05:09.454Z,1.80
2023-11-27T20:07:37.079Z,1.83
2023-11-27T20:10:05.888Z,1.79
2023-11-27T20:12:32.382Z,1.85
2023-11-27T20:14:58.857Z,1.74
2023-11-27T20:17:30.205Z,1.90
2023-11-27T20:19:56.752Z,1.56
2023-11-27T20:22:24.840Z,1.83
2023-11-27T20:24:51.379Z,1.87
2023-11-27T20:27:19.252Z,1.92
2023-11-27T20:29:50.508Z,1.94
2023-11-27T20:32:19.825Z,1.91
2023-11-27T20:34:52.245Z,2.03
2023-11-27T20:37:19.462Z,1.93
2023-11-27T20:39:46.218Z,2.01
2023-11-27T20:42:14.730Z,1.91
2023-11-27T20:44:50.962Z,2.02
2023-11-27T20:47:22.315Z,2.01
2023-11-27T20:49:51.818Z,2.03
2023-11-27T20:52:20.243Z,2.01
2023-11-27T20:54:47.910Z,2.01
2023-11-27T20:57:14.602Z,2.10
2023-11-27T20:59:41.957Z,1.86
2023-11-27T21:02:08.560Z,2.12
2023-11-27T21:04:38.136Z,2.15
2023-11-27T21:07:04.847Z,2.15
2023-11-27T21:09:33.422Z,1.84
2023-11-27T21:12:02.256Z,2.21
2023-11-27T21:14:28.775Z,2.16
2023-11-27T21:16:55.383Z,2.18
2023-11-27T21:19:24.843Z,2.17
2023-11-27T21:21:53.757Z,2.14
2023-11-27T21:24:20.242Z,2.28
2023-11-27T21:26:49.003Z,2.12
2023-11-27T21:29:18.285Z,2.30
2023-11-27T21:31:44.877Z,2.21
2023-11-27T21:34:11.555Z,2.29
2023-11-27T21:36:38.122Z,2.22
2023-11-27T21:39:06.869Z,2.21
2023-11-27T21:41:33.883Z,2.26
2023-11-27T21:44:00.907Z,2.25
2023-11-27T21:46:27.683Z,2.27
2023-11-27T21:48:57.541Z,2.37
2023-11-27T21:51:24.952Z,2.30
2023-11-27T21:53:51.488Z,2.30
2023-11-27T21:56:17.967Z,2.32
2023-11-27T21:58:49.308Z,2.40
2023-11-27T22:01:17.739Z,2.11
2023-11-27T22:03:47.196Z,2.37
2023-11-27T22:06:16.172Z,2.32
2023-11-27T22:08:45.347Z,2.39
2023-11-27T22:11:14.074Z,2.45
2023-11-27T22:13:42.941Z,2.52
2023-11-27T22:16:10.030Z,2.53
2023-11-27T22:18:36.649Z,2.51
2023-11-27T22:21:05.645Z,2.52
2023-11-27T22:23:32.099Z,2.57
2023-11-27T22:25:58.598Z,2.50
2023-11-27T22:28:25.130Z,2.44
2023-11-27T22:30:51.664Z,2.56
2023-11-27T22:33:20.352Z,2.64
2023-11-27T22:35:47.913Z,2.64
2023-11-27T22:38:15.355Z,2.57
2023-11-27T22:40:41.828Z,2.72
2023-11-27T22:43:08.382Z,2.65
2023-11-27T22:45:34.869Z,2.72
2023-11-27T22:48:01.355Z,2.70
2023-11-27T22:50:27.941Z,2.57
2023-11-27T22:52:56.797Z,2.68
2023-11-27T22:55:25.563Z,2.71
2023-11-27T22:57:56.962Z,2.75
2023-11-27T23:00:24.046Z,2.76
2023-11-27T23:02:50.963Z,2.74
2023-11-27T23:05:17.817Z,2.80
2023-11-27T23:07:46.577Z,2.77
2023-11-27T23:10:13.621Z,2.72
2023-11-27T23:12:43.038Z,2.65
2023-11-27T23:15:12.228Z,2.74
2023-11-27T23:17:40.272Z,2.73
2023-11-27T23:20:07.991Z,2.75
2023-11-27T23:22:34.468Z,2.62
2023-11-27T23:25:03.610Z,2.70
2023-11-27T23:27:30.109Z,2.72
2023-11-27T23:29:56.575Z,2.73
2023-11-27T23:32:23.680Z,2.77
2023-11-27T23:34:50.206Z,2.72
2023-11-27T23:37:16.884Z,2.73
2023-11-27T23:39:43.386Z,2.78
2023-11-27T23:42:12.179Z,2.73
2023-11-27T23:44:40.191Z,2.70
2023-11-27T23:47:08.958Z,2.77
2023-11-27T23:49:38.815Z,2.74
2023-11-27T23:52:05.421Z,2.87
2023-11-27T23:54:31.970Z,2.89
2023-11-27T23:57:00.861Z,2.84
2023-11-27T23:59:27.539Z,2.84
